Time;durP1;ratioP1;P1;durP2;ratioP2;P2;SDS_P1;SDS_P2;PMS_P1;PMS_P2;Temp;Humidity;BMP_temperature;BMP_pressure;BME280_temperature;BME280_humidity;BME280_pressure;Samples;Min_cycle;Max_cycle;Signal;HPM_P1;HPM_P2
2023/09/06 00:01:39;;;;;;;4.77;3.50;;;15.90;99.90;;;;;;5028395;28;20214;-29
2023/09/06 00:04:05;;;;;;;4.30;3.20;;;15.90;99.90;;;;;;5011777;28;20204;-28
2023/09/06 00:06:31;;;;;;;4.90;4.10;;;15.80;99.90;;;;;;5026243;28;20183;-29
2023/09/06 00:08:57;;;;;;;4.97;3.60;;;15.80;99.90;;;;;;4999701;28;20193;-28
2023/09/06 00:11:24;;;;;;;5.40;4.17;;;15.80;99.90;;;;;;4998679;28;20225;-28
2023/09/06 00:13:50;;;;;;;6.90;4.80;;;15.80;99.90;;;;;;5012225;28;20222;-29
2023/09/06 00:16:16;;;;;;;4.53;4.00;;;15.70;99.90;;;;;;5006657;28;20183;-28
2023/09/06 00:18:42;;;;;;;5.63;4.20;;;15.60;99.90;;;;;;5005668;28;20187;-28
2023/09/06 00:21:08;;;;;;;5.30;3.80;;;15.70;99.90;;;;;;5010907;28;20312;-28
2023/09/06 00:23:34;;;;;;;4.07;3.67;;;15.70;99.90;;;;;;5011822;28;20195;-28
2023/09/06 00:26:00;;;;;;;7.57;4.33;;;15.80;99.90;;;;;;5012017;28;20246;-28
2023/09/06 00:28:26;;;;;;;5.77;4.50;;;15.80;99.90;;;;;;5012031;28;20183;-28
2023/09/06 00:30:56;;;;;;;4.53;4.13;;;15.70;99.90;;;;;;5012006;28;20179;-28
2023/09/06 00:33:26;;;;;;;5.13;4.10;;;15.60;99.90;;;;;;5012371;28;20262;-29
2023/09/06 00:35:54;;;;;;;5.00;4.03;;;15.50;99.90;;;;;;5028431;28;20190;-29
2023/09/06 00:38:20;;;;;;;5.33;3.90;;;15.50;99.90;;;;;;5027871;28;20203;-28
2023/09/06 00:40:51;;;;;;;4.90;3.83;;;15.50;99.90;;;;;;5028136;28;20207;-28
2023/09/06 00:43:17;;;;;;;4.87;4.17;;;15.50;99.90;;;;;;5028198;28;20250;-28
2023/09/06 00:45:45;;;;;;;5.90;4.10;;;15.50;99.90;;;;;;5028177;28;20270;-29
2023/09/06 00:48:13;;;;;;;4.17;3.77;;;15.40;99.90;;;;;;5027663;28;20219;-28
2023/09/06 00:50:42;;;;;;;4.50;3.73;;;15.30;99.90;;;;;;5027892;28;20266;-28
2023/09/06 00:53:08;;;;;;;4.37;3.97;;;15.30;99.90;;;;;;5028212;28;20230;-28
2023/09/06 00:55:37;;;;;;;4.90;4.40;;;15.30;99.90;;;;;;5027943;28;20205;-28
2023/09/06 00:58:05;;;;;;;4.67;3.70;;;15.30;99.90;;;;;;5011553;28;20207;-29
2023/09/06 01:00:31;;;;;;;5.27;4.13;;;15.30;99.90;;;;;;5011415;28;20270;-29
2023/09/06 01:02:57;;;;;;;4.87;4.37;;;15.30;99.90;;;;;;5027770;28;20225;-29
2023/09/06 01:05:26;;;;;;;4.50;4.00;;;15.20;99.90;;;;;;5011431;28;20183;-29
2023/09/06 01:07:59;;;;;;;6.53;4.40;;;15.20;99.90;;;;;;5011268;28;20180;-28
2023/09/06 01:10:25;;;;;;;7.23;4.30;;;15.10;99.90;;;;;;5027684;28;20187;-29
2023/09/06 01:12:55;;;;;;;5.30;4.33;;;15.00;99.90;;;;;;5027372;28;20202;-29
2023/09/06 01:15:22;;;;;;;5.07;4.20;;;15.00;99.90;;;;;;5027827;28;20215;-28
2023/09/06 01:17:49;;;;;;;4.30;3.90;;;15.00;99.90;;;;;;5010843;28;20187;-29
2023/09/06 01:20:53;;;;;;;5.43;4.27;;;14.90;99.90;;;;;;5008061;28;20215;-28
2023/09/06 01:23:31;;;;;;;5.43;4.17;;;14.90;99.90;;;;;;5006233;28;20207;-28
2023/09/06 01:25:57;;;;;;;4.80;4.30;;;14.90;99.90;;;;;;5021484;28;20227;-28
2023/09/06 01:28:27;;;;;;;4.97;4.37;;;14.80;99.90;;;;;;5035970;28;20176;-29
2023/09/06 01:30:54;;;;;;;5.80;3.90;;;14.80;99.90;;;;;;5026593;28;20241;-29
2023/09/06 01:33:20;;;;;;;6.80;4.40;;;14.80;99.90;;;;;;5010729;28;20233;-29
2023/09/06 01:35:46;;;;;;;6.83;4.20;;;14.80;99.90;;;;;;5026245;28;20183;-28
2023/09/06 01:38:11;;;;;;;5.03;4.03;;;14.80;99.90;;;;;;5010906;28;20187;-28
2023/09/06 01:40:37;;;;;;;5.17;4.40;;;14.80;99.90;;;;;;5025005;28;20215;-28
2023/09/06 01:43:03;;;;;;;4.50;3.83;;;14.80;99.90;;;;;;5010548;28;20294;-28
2023/09/06 01:45:29;;;;;;;4.77;4.03;;;14.80;99.90;;;;;;5010341;28;20270;-29
2023/09/06 01:47:55;;;;;;;5.17;3.60;;;14.70;99.90;;;;;;5009512;28;20202;-28
2023/09/06 01:50:21;;;;;;;5.37;4.30;;;14.60;99.90;;;;;;5010137;28;20248;-28
2023/09/06 01:52:48;;;;;;;5.13;4.60;;;14.60;99.90;;;;;;5009343;28;20211;-28
2023/09/06 01:55:14;;;;;;;4.67;4.07;;;14.60;99.90;;;;;;5010535;28;20227;-28
2023/09/06 01:57:40;;;;;;;5.23;4.00;;;14.50;99.90;;;;;;5010287;28;20179;-28
2023/09/06 02:02:51;;;;;;;5.37;4.17;;;14.40;99.90;;;;;;5009955;28;20199;-28
2023/09/06 02:05:17;;;;;;;5.20;4.70;;;14.40;99.90;;;;;;5010010;28;20190;-28
2023/09/06 02:07:44;;;;;;;4.70;3.97;;;14.30;99.90;;;;;;5010047;28;20186;-28
2023/09/06 02:10:10;;;;;;;6.03;4.23;;;14.20;99.90;;;;;;5010199;28;20194;-27
2023/09/06 02:12:37;;;;;;;5.73;4.53;;;14.20;99.90;;;;;;5009203;28;20207;-28
2023/09/06 02:15:08;;;;;;;6.67;4.20;;;14.10;99.90;;;;;;5010185;28;20186;-29
2023/09/06 02:17:34;;;;;;;5.20;4.60;;;14.10;99.90;;;;;;5009050;28;20183;-28
2023/09/06 02:20:12;;;;;;;4.80;4.00;;;14.10;99.90;;;;;;5018144;28;20203;-28
2023/09/06 02:22:41;;;;;;;5.30;4.13;;;14.00;99.90;;;;;;5009336;28;20202;-27
2023/09/06 02:25:09;;;;;;;4.80;4.10;;;14.00;99.90;;;;;;5010215;28;20187;-27
2023/09/06 02:27:36;;;;;;;7.23;4.40;;;13.90;99.90;;;;;;5009931;28;20269;-28
2023/09/06 02:30:05;;;;;;;6.50;4.30;;;13.90;99.90;;;;;;5009910;28;20334;-28
2023/09/06 02:32:33;;;;;;;5.50;4.60;;;13.90;99.90;;;;;;5009443;28;20194;-28
2023/09/06 02:35:00;;;;;;;8.00;4.80;;;13.90;99.90;;;;;;5009190;28;20260;-28
2023/09/06 02:37:26;;;;;;;6.47;5.10;;;13.90;99.90;;;;;;5009980;28;20222;-28
2023/09/06 02:39:55;;;;;;;6.00;4.43;;;13.90;99.90;;;;;;5009749;28;20273;-28
2023/09/06 02:42:21;;;;;;;7.03;4.73;;;13.90;99.90;;;;;;5011914;28;20179;-27
2023/09/06 02:44:47;;;;;;;6.13;4.67;;;13.90;99.90;;;;;;5013741;28;20654;-27
2023/09/06 02:47:17;;;;;;;5.60;4.10;;;13.90;99.90;;;;;;5013872;28;20186;-28
2023/09/06 02:49:43;;;;;;;4.90;4.03;;;13.80;99.90;;;;;;5021667;28;20187;-27
2023/09/06 02:52:28;;;;;;;5.27;3.83;;;13.90;99.90;;;;;;5013116;28;20193;-28
2023/09/06 02:54:57;;;;;;;5.83;4.30;;;13.90;99.90;;;;;;5013848;28;20273;-28
2023/09/06 02:57:25;;;;;;;5.60;4.50;;;13.80;99.90;;;;;;5013525;28;20188;-27
2023/09/06 02:59:51;;;;;;;6.67;4.90;;;13.80;99.90;;;;;;5012295;28;20210;-27
2023/09/06 03:02:21;;;;;;;5.43;4.27;;;13.80;99.90;;;;;;5013588;28;20268;-28
2023/09/06 03:04:51;;;;;;;5.93;4.73;;;13.70;99.90;;;;;;5013482;28;20187;-28
2023/09/06 03:07:19;;;;;;;7.13;4.37;;;13.70;99.90;;;;;;5012884;28;20209;-27
2023/09/06 03:09:45;;;;;;;6.73;4.20;;;13.70;99.90;;;;;;5013195;28;20187;-28
2023/09/06 03:12:14;;;;;;;6.00;4.93;;;13.60;99.90;;;;;;5023749;28;20191;-27
2023/09/06 03:14:44;;;;;;;5.37;4.63;;;13.60;99.90;;;;;;5023181;28;20191;-27
2023/09/06 03:17:11;;;;;;;7.60;4.53;;;13.60;99.90;;;;;;5013042;28;20264;-28
2023/09/06 03:19:41;;;;;;;6.00;4.90;;;13.60;99.90;;;;;;5013076;28;20241;-27
2023/09/06 03:22:12;;;;;;;5.27;4.43;;;13.60;99.90;;;;;;5011648;28;20278;-28
2023/09/06 03:24:41;;;;;;;5.20;4.67;;;13.70;99.90;;;;;;5012789;28;20183;-27
2023/09/06 03:27:08;;;;;;;7.93;4.57;;;13.70;99.90;;;;;;5023520;28;20271;-28
2023/09/06 03:29:38;;;;;;;7.10;5.17;;;13.70;99.90;;;;;;5009729;28;20194;-27
2023/09/06 03:32:08;;;;;;;6.10;4.70;;;13.70;99.90;;;;;;5012832;28;20190;-28
2023/09/06 03:34:36;;;;;;;6.10;4.57;;;13.70;99.90;;;;;;5012714;28;20215;-28
2023/09/06 03:37:05;;;;;;;5.67;4.60;;;13.60;99.90;;;;;;5012477;28;20198;-28
2023/09/06 03:39:37;;;;;;;4.50;3.90;;;13.60;99.90;;;;;;5012947;28;20203;-28
2023/09/06 03:42:08;;;;;;;6.47;4.40;;;13.50;99.90;;;;;;5012043;28;20183;-28
2023/09/06 03:44:42;;;;;;;4.90;4.40;;;13.40;99.90;;;;;;5012743;28;20213;-27
2023/09/06 03:47:13;;;;;;;5.40;4.17;;;13.40;99.90;;;;;;5012101;28;20194;-27
2023/09/06 03:49:40;;;;;;;6.57;4.80;;;13.30;99.90;;;;;;5012690;28;20264;-27
2023/09/06 03:52:07;;;;;;;5.87;4.37;;;13.30;99.90;;;;;;4995638;28;20190;-27
2023/09/06 03:54:36;;;;;;;6.40;4.70;;;13.20;99.90;;;;;;5012695;28;20217;-27
2023/09/06 03:57:03;;;;;;;6.37;5.10;;;13.20;99.90;;;;;;5012684;28;20187;-28
2023/09/06 03:59:31;;;;;;;5.30;4.13;;;13.20;99.90;;;;;;5011991;28;20297;-27
2023/09/06 04:01:58;;;;;;;6.77;4.97;;;13.20;99.90;;;;;;5012429;28;20186;-27
2023/09/06 04:04:28;;;;;;;5.07;4.33;;;13.20;99.90;;;;;;5012636;28;20340;-27
2023/09/06 04:06:54;;;;;;;6.43;5.00;;;13.20;99.90;;;;;;5012241;28;20229;-27
2023/09/06 04:09:30;;;;;;;6.90;4.90;;;13.10;99.90;;;;;;5012335;28;20180;-27
2023/09/06 04:11:59;;;;;;;6.07;4.50;;;13.10;99.90;;;;;;5020026;28;20179;-28
2023/09/06 04:14:25;;;;;;;5.20;4.70;;;13.10;99.90;;;;;;5012332;28;20207;-27
2023/09/06 04:16:53;;;;;;;6.00;4.93;;;13.10;99.90;;;;;;5011589;28;20183;-28
2023/09/06 04:19:20;;;;;;;6.43;5.00;;;13.10;99.90;;;;;;5011594;28;20187;-28
2023/09/06 04:21:48;;;;;;;6.30;4.67;;;13.00;99.90;;;;;;5011510;28;20662;-28
2023/09/06 04:24:15;;;;;;;5.63;4.57;;;13.00;99.90;;;;;;5010880;28;20211;-28
2023/09/06 04:26:41;;;;;;;5.73;4.70;;;12.90;99.90;;;;;;5011711;28;20193;-28
2023/09/06 04:29:07;;;;;;;6.70;4.10;;;12.90;99.90;;;;;;5010876;28;20194;-28
2023/09/06 04:31:33;;;;;;;6.27;4.53;;;12.90;99.90;;;;;;5011188;28;20191;-28
2023/09/06 04:34:01;;;;;;;6.03;5.17;;;12.90;99.90;;;;;;5011858;28;20215;-28
2023/09/06 04:36:28;;;;;;;5.30;4.07;;;12.80;99.90;;;;;;5011784;28;20193;-28
2023/09/06 04:39:03;;;;;;;5.43;4.53;;;12.80;99.90;;;;;;5011887;28;20239;-28
2023/09/06 04:41:32;;;;;;;5.93;4.90;;;12.80;99.90;;;;;;5024333;28;20232;-28
2023/09/06 04:44:04;;;;;;;5.73;4.67;;;12.80;99.90;;;;;;4995796;28;20230;-28
2023/09/06 04:46:30;;;;;;;5.27;4.77;;;12.70;99.90;;;;;;5011624;28;20198;-28
2023/09/06 04:48:57;;;;;;;6.33;4.80;;;12.70;99.90;;;;;;5011789;28;20185;-28
2023/09/06 04:51:23;;;;;;;7.73;5.43;;;12.70;99.90;;;;;;5010541;28;20185;-27
2023/09/06 04:53:50;;;;;;;7.10;5.23;;;12.70;99.90;;;;;;5011389;28;20252;-28
2023/09/06 04:56:22;;;;;;;7.93;4.70;;;12.70;99.90;;;;;;5013283;28;20197;-27
2023/09/06 04:58:49;;;;;;;8.20;5.10;;;12.70;99.90;;;;;;5012472;28;20216;-29
2023/09/06 05:01:14;;;;;;;6.47;5.30;;;12.70;99.90;;;;;;5010624;28;20236;-27
2023/09/06 05:03:40;;;;;;;5.43;4.77;;;12.60;99.90;;;;;;5010453;28;20217;-28
2023/09/06 05:06:07;;;;;;;6.37;4.77;;;12.60;99.90;;;;;;5011028;28;20183;-28
2023/09/06 05:08:32;;;;;;;5.50;4.50;;;12.60;99.90;;;;;;5015434;28;20264;-28
2023/09/06 05:11:06;;;;;;;6.77;5.30;;;12.60;99.90;;;;;;4995582;28;20230;-28
2023/09/06 05:13:35;;;;;;;6.10;4.63;;;12.60;99.90;;;;;;5011185;28;20210;-28
2023/09/06 05:16:02;;;;;;;5.90;4.90;;;12.60;99.90;;;;;;5011020;28;20272;-28
2023/09/06 05:18:29;;;;;;;6.30;5.37;;;12.60;99.90;;;;;;5011058;28;20187;-28
2023/09/06 05:20:59;;;;;;;6.93;5.00;;;12.70;99.90;;;;;;5010312;28;20226;-28
2023/09/06 05:23:25;;;;;;;6.40;4.93;;;12.70;99.90;;;;;;5010631;28;20261;-28
2023/09/06 05:25:51;;;;;;;7.13;5.03;;;12.70;99.90;;;;;;5017978;28;20207;-28
2023/09/06 05:28:34;;;;;;;9.77;5.07;;;12.80;99.90;;;;;;5010640;28;20179;-28
2023/09/06 05:31:03;;;;;;;6.03;5.00;;;12.80;99.90;;;;;;5026727;28;20329;-28
2023/09/06 05:33:33;;;;;;;8.13;5.07;;;12.90;99.90;;;;;;5010767;28;20217;-28
2023/09/06 05:36:00;;;;;;;6.90;5.10;;;13.00;99.90;;;;;;5010585;28;20186;-28
2023/09/06 05:38:26;;;;;;;7.80;5.07;;;13.10;99.90;;;;;;5009762;28;20223;-28
2023/09/06 05:40:53;;;;;;;6.07;4.80;;;13.10;99.90;;;;;;4994212;28;20256;-28
2023/09/06 05:43:28;;;;;;;7.27;4.77;;;13.20;99.90;;;;;;5010320;28;20293;-28
2023/09/06 05:45:54;;;;;;;6.10;4.80;;;13.30;99.90;;;;;;5010652;28;20274;-28
2023/09/06 05:48:20;;;;;;;6.73;4.93;;;13.50;99.90;;;;;;5010578;28;20190;-28
2023/09/06 05:50:49;;;;;;;5.10;4.60;;;13.60;99.90;;;;;;5010201;28;20187;-28
2023/09/06 05:53:16;;;;;;;7.03;4.97;;;13.70;99.90;;;;;;5009808;28;20250;-28
2023/09/06 05:55:42;;;;;;;5.93;4.50;;;13.80;99.90;;;;;;5010120;28;20191;-28
2023/09/06 05:58:08;;;;;;;5.73;4.50;;;13.90;99.90;;;;;;5010549;28;20210;-28
2023/09/06 06:00:34;;;;;;;5.73;4.53;;;14.00;99.90;;;;;;5010043;28;20211;-28
2023/09/06 06:03:01;;;;;;;6.57;4.70;;;14.10;99.90;;;;;;5010064;28;20191;-28
2023/09/06 06:05:28;;;;;;;6.73;4.77;;;14.10;99.90;;;;;;5010136;28;20175;-28
2023/09/06 06:07:57;;;;;;;7.80;4.80;;;14.20;99.90;;;;;;5010177;28;20185;-28
2023/09/06 06:10:23;;;;;;;5.30;4.63;;;14.30;99.90;;;;;;5010203;28;20242;-28
2023/09/06 06:12:49;;;;;;;6.17;4.93;;;14.20;99.90;;;;;;5009828;28;20211;-28
2023/09/06 06:15:15;;;;;;;7.17;4.70;;;14.30;99.90;;;;;;5009950;28;20190;-27
2023/09/06 06:17:42;;;;;;;7.23;4.53;;;14.30;99.90;;;;;;5009673;28;20191;-28
2023/09/06 06:20:10;;;;;;;5.13;4.50;;;14.50;99.90;;;;;;5010391;28;20207;-28
2023/09/06 06:22:40;;;;;;;5.37;4.87;;;14.60;99.90;;;;;;5009277;28;20207;-28
2023/09/06 06:25:08;;;;;;;5.23;4.73;;;14.70;99.90;;;;;;5009973;28;20179;-28
2023/09/06 06:27:34;;;;;;;6.73;5.07;;;14.70;99.90;;;;;;5009713;28;20278;-28
2023/09/06 06:30:00;;;;;;;7.87;5.10;;;14.80;99.90;;;;;;5009812;28;20270;-28
2023/09/06 06:32:26;;;;;;;5.33;4.83;;;14.90;99.90;;;;;;5008948;28;20270;-28
2023/09/06 06:34:54;;;;;;;5.30;4.73;;;14.90;99.90;;;;;;4993657;28;20646;-28
2023/09/06 06:37:21;;;;;;;5.83;4.60;;;14.90;99.90;;;;;;5008747;28;20187;-28
2023/09/06 06:39:47;;;;;;;6.73;4.57;;;14.90;99.90;;;;;;5008831;28;20265;-28
2023/09/06 06:42:13;;;;;;;5.93;4.80;;;15.00;99.90;;;;;;5008754;28;20180;-28
2023/09/06 06:44:47;;;;;;;7.53;5.40;;;15.10;99.90;;;;;;5009849;28;20664;-28
2023/09/06 06:47:13;;;;;;;8.27;5.80;;;15.10;99.90;;;;;;5009040;28;20232;-28
2023/09/06 06:49:39;;;;;;;7.40;6.07;;;15.00;99.90;;;;;;5014451;28;20197;-28
2023/09/06 06:52:05;;;;;;;5.83;5.03;;;15.00;99.90;;;;;;5017049;28;20258;-28
2023/09/06 06:54:31;;;;;;;8.33;5.60;;;15.10;99.90;;;;;;5008961;28;20298;-28
2023/09/06 06:56:57;;;;;;;7.73;5.67;;;15.20;99.90;;;;;;5009540;28;20287;-28
2023/09/06 06:59:23;;;;;;;6.50;5.40;;;15.30;99.90;;;;;;5008630;28;20227;-28
2023/09/06 07:01:49;;;;;;;8.00;5.43;;;15.30;99.90;;;;;;5025997;28;20194;-28
2023/09/06 07:04:14;;;;;;;6.57;5.40;;;15.50;99.90;;;;;;5009513;28;20231;-28
2023/09/06 07:06:40;;;;;;;5.90;5.30;;;15.60;99.90;;;;;;5008348;28;20250;-28
2023/09/06 07:09:06;;;;;;;6.33;5.27;;;15.70;99.90;;;;;;5010220;28;20190;-28
2023/09/06 07:11:33;;;;;;;6.30;5.57;;;15.90;99.90;;;;;;4997217;28;20219;-27
2023/09/06 07:13:59;;;;;;;6.00;5.13;;;16.00;99.90;;;;;;5017380;28;20230;-27
2023/09/06 07:16:25;;;;;;;6.33;4.90;;;16.10;99.90;;;;;;5009498;28;20219;-28
2023/09/06 07:18:51;;;;;;;6.03;5.27;;;16.10;99.90;;;;;;5009575;28;20298;-27
2023/09/06 07:21:18;;;;;;;5.83;5.23;;;16.20;99.90;;;;;;5009326;28;20294;-28
2023/09/06 07:23:45;;;;;;;6.40;5.30;;;16.20;99.90;;;;;;5009444;28;20233;-27
2023/09/06 07:26:11;;;;;;;7.57;5.47;;;16.40;99.90;;;;;;5009329;28;20180;-28
2023/09/06 07:28:39;;;;;;;8.40;5.53;;;16.50;99.90;;;;;;5012210;28;20183;-28
2023/09/06 07:31:06;;;;;;;5.73;5.23;;;16.60;99.90;;;;;;5012770;28;20210;-30
2023/09/06 07:33:32;;;;;;;6.80;5.13;;;16.80;99.90;;;;;;5012661;28;20227;-28
2023/09/06 07:35:58;;;;;;;6.00;5.43;;;16.90;99.90;;;;;;5012801;28;20267;-28
2023/09/06 07:38:24;;;;;;;5.70;4.70;;;17.00;99.90;;;;;;5012956;28;20191;-28
2023/09/06 07:41:03;;;;;;;5.75;5.25;;;17.20;99.90;;;;;;5012275;28;20218;-28
2023/09/06 07:43:29;;;;;;;6.73;5.60;;;17.20;99.90;;;;;;5012819;28;20215;-28
2023/09/06 07:45:56;;;;;;;5.63;5.03;;;17.30;99.90;;;;;;5012620;28;20325;-28
2023/09/06 07:48:24;;;;;;;7.07;5.20;;;17.40;99.90;;;;;;5012761;28;20270;-27
2023/09/06 07:50:50;;;;;;;8.32;5.38;;;17.50;99.90;;;;;;5011715;28;20191;-28
2023/09/06 07:53:16;;;;;;;7.18;5.50;;;17.60;99.90;;;;;;5012803;28;20281;-28
2023/09/06 07:55:46;;;;;;;5.80;5.20;;;17.70;99.90;;;;;;5012384;28;20186;-28
2023/09/06 07:58:18;;;;;;;7.43;5.80;;;17.80;99.90;;;;;;5012401;28;20265;-28
2023/09/06 08:00:44;;;;;;;6.38;5.50;;;18.00;99.90;;;;;;5021643;28;20275;-28
2023/09/06 08:03:11;;;;;;;7.68;5.75;;;18.10;99.90;;;;;;5012475;28;20229;-28
2023/09/06 08:05:37;;;;;;;7.10;5.82;;;18.30;99.90;;;;;;5012227;28;20183;-28
2023/09/06 08:08:08;;;;;;;7.95;5.78;;;18.30;99.90;;;;;;5012373;28;20202;-28
2023/09/06 08:10:38;;;;;;;8.35;6.55;;;18.40;99.90;;;;;;5012249;28;20191;-28
2023/09/06 08:13:04;;;;;;;6.65;5.95;;;18.50;99.90;;;;;;5011739;28;20211;-28
2023/09/06 08:15:31;;;;;;;8.88;6.15;;;18.70;99.90;;;;;;4995698;28;20282;-28
2023/09/06 08:17:57;;;;;;;6.88;5.60;;;18.80;99.90;;;;;;5011920;28;20179;-28
2023/09/06 08:20:23;;;;;;;6.65;5.30;;;19.00;99.90;;;;;;5011831;28;20310;-29
2023/09/06 08:22:49;;;;;;;7.22;5.70;;;19.10;99.90;;;;;;5017446;28;20611;-29
2023/09/06 08:25:17;;;;;;;7.05;5.82;;;19.30;99.90;;;;;;5020124;28;20233;-28
2023/09/06 08:27:43;;;;;;;6.72;5.43;;;19.40;99.90;;;;;;4995224;28;20184;-28
2023/09/06 08:30:15;;;;;;;8.98;5.57;;;19.50;99.90;;;;;;5028333;28;20202;-28
2023/09/06 08:32:42;;;;;;;6.88;6.07;;;19.70;99.90;;;;;;5011536;28;20222;-29
2023/09/06 08:35:08;;;;;;;7.63;5.45;;;19.80;99.90;;;;;;5011712;28;20194;-28
2023/09/06 08:37:34;;;;;;;7.47;6.20;;;19.90;99.90;;;;;;5019793;28;20240;-28
2023/09/06 08:40:07;;;;;;;8.93;5.50;;;20.00;99.90;;;;;;5011351;28;20297;-29
2023/09/06 08:42:34;;;;;;;6.80;5.25;;;20.20;99.90;;;;;;5011450;28;20183;-28
2023/09/06 08:45:01;;;;;;;8.90;5.30;;;20.30;99.90;;;;;;5011342;28;20765;-29
2023/09/06 08:47:28;;;;;;;5.45;4.95;;;20.40;99.90;;;;;;5011342;28;20190;-29
2023/09/06 08:49:54;;;;;;;7.18;5.43;;;20.60;99.90;;;;;;5011719;28;20190;-29
2023/09/06 08:52:20;;;;;;;7.22;5.68;;;20.60;99.90;;;;;;5012004;28;20194;-29
2023/09/06 08:54:48;;;;;;;8.65;5.72;;;20.80;99.90;;;;;;5019589;28;20215;-29
2023/09/06 08:57:15;;;;;;;6.68;5.28;;;20.80;99.90;;;;;;5011455;28;20183;-29
2023/09/06 08:59:42;;;;;;;6.90;4.90;;;20.90;99.90;;;;;;5011068;28;20203;-29
2023/09/06 09:02:12;;;;;;;6.22;5.35;;;21.10;99.90;;;;;;5011272;28;20175;-29
2023/09/06 09:04:42;;;;;;;5.50;4.53;;;21.30;99.90;;;;;;5011013;28;20208;-29
2023/09/06 09:07:12;;;;;;;7.45;5.38;;;21.60;99.90;;;;;;5027226;28;20179;-29
2023/09/06 09:09:56;;;;;;;7.00;4.97;;;21.80;99.90;;;;;;5011135;28;20179;-29
2023/09/06 09:12:26;;;;;;;6.72;5.30;;;21.90;99.90;;;;;;4994158;28;20175;-28
2023/09/06 09:14:56;;;;;;;7.88;5.32;;;22.10;99.90;;;;;;5008986;28;20175;-29
2023/09/06 09:17:27;;;;;;;7.25;5.30;;;22.20;99.90;;;;;;5010458;28;20226;-29
2023/09/06 09:19:54;;;;;;;6.80;5.05;;;22.20;99.90;;;;;;5010579;28;20214;-29
2023/09/06 09:22:28;;;;;;;5.75;4.80;;;22.40;99.90;;;;;;5009379;28;20207;-29
2023/09/06 09:25:04;;;;;;;9.02;5.10;;;22.50;99.90;;;;;;5010185;28;20179;-29
2023/09/06 09:27:36;;;;;;;4.70;4.30;;;22.50;99.90;;;;;;4994657;28;20179;-29
2023/09/06 09:30:07;;;;;;;5.38;4.50;;;22.70;99.90;;;;;;5018930;28;20233;-29
2023/09/06 09:32:33;;;;;;;4.57;4.07;;;22.90;99.90;;;;;;5010841;28;20183;-29
2023/09/06 09:34:59;;;;;;;4.78;4.10;;;23.20;99.90;;;;;;5010721;28;20202;-29
2023/09/06 09:37:29;;;;;;;5.72;3.97;;;23.30;99.90;;;;;;5020212;28;20195;-29
2023/09/06 09:39:56;;;;;;;5.30;4.22;;;23.50;99.90;;;;;;5026243;28;20211;-29
2023/09/06 09:42:22;;;;;;;6.05;4.15;;;23.70;99.90;;;;;;5019480;28;20179;-29
2023/09/06 09:45:02;;;;;;;4.93;4.40;;;23.80;99.90;;;;;;5026823;28;20670;-29
2023/09/06 09:47:31;;;;;;;4.68;4.25;;;23.90;99.90;;;;;;5010408;28;20187;-29
2023/09/06 09:50:01;;;;;;;6.90;4.53;;;24.00;99.90;;;;;;5009876;28;20191;-29
2023/09/06 09:52:31;;;;;;;5.32;4.82;;;24.00;99.90;;;;;;5009153;28;20191;-29
2023/09/06 09:54:59;;;;;;;5.25;4.40;;;24.10;99.90;;;;;;5018449;28;20179;-29
2023/09/06 09:57:26;;;;;;;5.22;4.70;;;23.90;99.90;;;;;;5010167;28;20183;-29
2023/09/06 09:59:54;;;;;;;5.97;4.95;;;23.90;99.90;;;;;;5009641;28;20318;-29
2023/09/06 10:02:23;;;;;;;5.00;4.50;;;24.00;99.90;;;;;;5009738;28;20186;-29
2023/09/06 10:04:50;;;;;;;4.80;4.20;;;24.10;99.90;;;;;;5018537;28;20191;-29
2023/09/06 10:07:19;;;;;;;6.07;4.30;;;24.40;99.90;;;;;;5010326;28;20179;-29
2023/09/06 10:09:46;;;;;;;4.70;4.30;;;24.60;99.90;;;;;;5039100;28;20194;-29
2023/09/06 10:12:14;;;;;;;4.75;4.22;;;24.80;99.90;;;;;;5026141;28;20179;-29
2023/09/06 10:14:41;;;;;;;5.20;4.70;;;24.90;99.90;;;;;;4992258;28;20183;-29
2023/09/06 10:17:11;;;;;;;4.57;4.18;;;25.10;99.90;;;;;;5009879;28;20194;-29
2023/09/06 10:19:38;;;;;;;5.28;4.32;;;25.20;99.90;;;;;;5009813;28;20179;-29
2023/09/06 10:22:12;;;;;;;6.22;4.65;;;25.10;99.90;;;;;;5008859;28;20179;-29
2023/09/06 10:24:39;;;;;;;5.50;4.65;;;25.20;99.90;;;;;;5018119;28;20233;-29
2023/09/06 10:27:11;;;;;;;4.93;4.43;;;25.20;99.90;;;;;;5009949;28;20222;-30
2023/09/06 10:29:54;;;;;;;5.03;4.53;;;25.40;99.90;;;;;;5009996;28;20182;-30
2023/09/06 10:32:22;;;;;;;7.65;4.55;;;25.50;99.90;;;;;;5009602;28;20179;-30
2023/09/06 10:35:21;;;;;;;4.97;4.20;;;25.60;99.90;;;;;;5009692;28;20179;-29
2023/09/06 10:38:14;;;;;;;5.82;4.50;;;25.70;99.90;;;;;;5021869;28;20175;-30
2023/09/06 10:40:49;;;;;;;4.95;4.28;;;25.90;99.90;;;;;;5009498;28;20207;-29
2023/09/06 10:43:20;;;;;;;7.18;4.53;;;26.00;99.90;;;;;;4993315;28;20269;-29
2023/09/06 10:46:07;;;;;;;5.18;4.20;;;26.20;99.90;;;;;;5009802;28;20206;-29
2023/09/06 10:48:33;;;;;;;5.10;4.68;;;26.30;99.90;;;;;;4987067;28;20179;-29
2023/09/06 10:51:12;;;;;;;4.68;4.28;;;26.20;99.90;;;;;;5009158;28;20237;-29
2023/09/06 10:53:40;;;;;;;8.18;4.95;;;26.40;99.90;;;;;;5017984;28;20225;-29
2023/09/06 10:56:07;;;;;;;5.22;4.50;;;26.60;99.90;;;;;;5009051;28;20191;-29
2023/09/06 10:58:37;;;;;;;5.07;4.57;;;26.80;99.90;;;;;;5009353;28;20230;-29
2023/09/06 11:01:12;;;;;;;5.35;4.18;;;26.60;99.90;;;;;;5008984;28;20239;-29
2023/09/06 11:03:38;;;;;;;4.60;4.00;;;26.80;99.90;;;;;;4996347;28;20206;-30
2023/09/06 11:06:04;;;;;;;4.80;4.40;;;26.90;99.90;;;;;;5013263;28;20188;-29
2023/09/06 11:08:31;;;;;;;5.07;4.40;;;26.90;99.90;;;;;;5013252;28;20303;-29
2023/09/06 11:11:02;;;;;;;4.53;4.13;;;27.10;99.90;;;;;;5021165;28;20175;-30
2023/09/06 11:13:32;;;;;;;5.05;4.53;;;27.20;99.90;;;;;;5012957;28;20257;-29
2023/09/06 11:15:57;;;;;;;4.53;4.13;;;27.10;99.90;;;;;;5013263;28;20175;-29
2023/09/06 11:18:23;;;;;;;7.05;4.60;;;27.00;99.90;;;;;;5013105;28;20206;-29
2023/09/06 11:20:50;;;;;;;6.25;4.35;;;27.30;99.90;;;;;;5012795;28;20239;-29
2023/09/06 11:23:16;;;;;;;4.80;4.40;;;27.30;99.90;;;;;;5013082;28;20226;-30
2023/09/06 11:25:43;;;;;;;4.78;4.28;;;27.60;99.90;;;;;;5011161;28;20234;-29
2023/09/06 11:28:19;;;;;;;4.07;3.67;;;27.80;99.90;;;;;;5013079;28;20183;-29
2023/09/06 11:30:49;;;;;;;3.90;3.60;;;28.00;99.90;;;;;;5012785;28;20190;-29
2023/09/06 11:33:16;;;;;;;4.80;4.32;;;28.00;99.90;;;;;;5012581;28;20295;-29
2023/09/06 11:35:56;;;;;;;4.63;4.22;;;28.20;99.90;;;;;;5012524;28;20179;-29
2023/09/06 11:38:30;;;;;;;4.40;4.00;;;28.30;99.90;;;;;;5012896;28;20197;-29
2023/09/06 11:41:16;;;;;;;4.97;4.57;;;28.40;99.90;;;;;;5017150;28;20199;-29
2023/09/06 11:43:46;;;;;;;4.70;4.30;;;28.50;99.90;;;;;;5022988;28;20203;-29
2023/09/06 11:46:14;;;;;;;4.88;4.47;;;28.70;99.90;;;;;;5012416;28;20187;-29
2023/09/06 11:48:41;;;;;;;5.13;4.63;;;28.90;99.90;;;;;;5012717;28;20179;-29
2023/09/06 11:51:08;;;;;;;7.38;4.60;;;28.70;99.90;;;;;;5011672;28;20289;-30
2023/09/06 11:53:43;;;;;;;4.97;4.57;;;28.70;99.90;;;;;;5012373;28;20238;-29
2023/09/06 11:56:11;;;;;;;4.80;4.30;;;28.80;99.90;;;;;;5012228;28;20213;-29
2023/09/06 11:58:45;;;;;;;5.65;4.95;;;28.90;99.90;;;;;;5012417;28;20180;-29
2023/09/06 12:01:18;;;;;;;4.40;4.00;;;29.00;99.90;;;;;;5011572;28;20218;-30
2023/09/06 12:03:45;;;;;;;5.85;4.20;;;29.10;99.90;;;;;;5012122;28;20199;-29
2023/09/06 12:06:12;;;;;;;5.38;4.28;;;29.20;99.90;;;;;;5012116;28;20262;-29
2023/09/06 12:08:38;;;;;;;7.10;4.30;;;29.10;99.90;;;;;;5012589;28;20287;-29
2023/09/06 12:11:11;;;;;;;5.28;4.47;;;29.20;99.90;;;;;;5011811;28;20276;-29
2023/09/06 12:13:38;;;;;;;5.05;4.55;;;29.40;99.90;;;;;;5011522;28;20210;-29
2023/09/06 12:16:15;;;;;;;5.72;4.65;;;29.50;99.90;;;;;;5011761;28;20179;-29
2023/09/06 12:18:41;;;;;;;5.13;4.63;;;29.30;99.90;;;;;;5011854;28;20267;-29
2023/09/06 12:21:07;;;;;;;5.25;4.80;;;29.40;99.90;;;;;;5011430;28;20289;-29
2023/09/06 12:23:35;;;;;;;4.88;4.40;;;29.50;99.90;;;;;;5011875;28;20195;-30
2023/09/06 12:26:02;;;;;;;4.82;4.38;;;29.60;99.90;;;;;;5011082;28;20187;-29
2023/09/06 12:28:28;;;;;;;4.43;4.05;;;29.60;99.90;;;;;;5011882;28;20179;-30
2023/09/06 12:30:58;;;;;;;5.53;4.20;;;29.80;99.90;;;;;;5010483;28;20195;-30
2023/09/06 12:33:27;;;;;;;4.55;4.15;;;29.90;99.90;;;;;;5012044;28;20214;-30
2023/09/06 12:36:00;;;;;;;6.50;4.93;;;30.00;99.90;;;;;;5011656;28;20249;-30
2023/09/06 12:38:31;;;;;;;5.72;4.60;;;30.00;99.90;;;;;;5011490;28;20203;-29
2023/09/06 12:40:58;;;;;;;4.97;4.57;;;30.00;99.90;;;;;;5011088;28;20202;-30
2023/09/06 12:43:26;;;;;;;4.68;4.28;;;30.20;99.90;;;;;;5011391;28;20206;-30
2023/09/06 12:45:53;;;;;;;5.53;4.68;;;30.20;99.90;;;;;;5011437;28;20194;-30
2023/09/06 12:48:22;;;;;;;4.75;4.35;;;30.20;99.90;;;;;;5010592;28;20187;-29
2023/09/06 12:50:50;;;;;;;4.80;4.40;;;30.20;99.90;;;;;;5010661;28;20247;-30
2023/09/06 12:53:22;;;;;;;4.82;4.30;;;30.30;99.90;;;;;;5010746;28;20217;-30
2023/09/06 12:55:48;;;;;;;5.72;4.82;;;30.50;99.90;;;;;;5014640;28;20225;-30
2023/09/06 12:58:14;;;;;;;4.35;4.05;;;30.70;99.90;;;;;;5011023;28;20231;-31